Time,TemperatureF,DewpointF,PressureIn,WindDirection,WindDirectionDegrees,WindSpeedMPH,WindSpeedGustMPH,Humidity,HourlyPrecipIn,Conditions,Clouds,dailyrainin,SolarRadiationWatts/m^2,SoftwareType,DateUTC
2013-10-02 00:11:00,52.5,48.0,29.97,North,5,2.0,2.0,84,0.00,,,0.00,0,weatherlink.com 1.10,2013-10-02 07:11:00,
2013-10-02 00:26:00,52.6,48.0,29.96,North,11,0.0,2.0,84,0.00,,,0.00,0,weatherlink.com 1.10,2013-10-02 07:26:00,
2013-10-02 00:41:00,52.8,47.0,29.96,North,11,1.0,3.0,82,0.00,,,0.00,0,weatherlink.com 1.10,2013-10-02 07:41:00,
2013-10-02 00:56:00,52.7,48.0,29.96,North,5,2.0,4.0,84,0.00,,,0.00,0,weatherlink.com 1.10,2013-10-02 07:56:00,
2013-10-02 01:11:00,51.9,47.0,29.96,NNE,22,0.0,4.0,84,0.00,,,0.00,0,weatherlink.com 1.10,2013-10-02 08:11:00,
2013-10-02 01:26:00,51.0,47.0,29.96,NNE,26,1.0,5.0,87,0.00,,,0.00,0,weatherlink.com 1.10,2013-10-02 08:26:00,
2013-10-02 01:41:00,52.1,48.0,29.96,NNE,19,3.0,5.0,85,0.00,,,0.00,0,weatherlink.com 1.10,2013-10-02 08:41:00,
2013-10-02 01:56:00,52.1,47.0,29.96,North,355,0.0,1.0,84,0.00,,,0.00,0,weatherlink.com 1.10,2013-10-02 08:56:00,
2013-10-02 02:11:00,51.8,47.0,29.97,NNE,20,2.0,4.0,84,0.00,,,0.00,0,weatherlink.com 1.10,2013-10-02 09:11:00,
2013-10-02 02:26:00,51.8,48.0,29.96,NNE,19,1.0,4.0,85,0.00,,,0.00,0,weatherlink.com 1.10,2013-10-02 09:26:00,
2013-10-02 02:41:00,51.4,47.0,29.96,NNE,19,0.0,5.0,85,0.00,,,0.00,0,weatherlink.com 1.10,2013-10-02 09:41:00,
2013-10-02 02:56:00,50.2,47.0,29.97,NNE,30,3.0,5.0,87,0.00,,,0.00,0,weatherlink.com 1.10,2013-10-02 09:56:00,
2013-10-02 03:11:00,51.2,48.0,29.96,North,355,3.0,6.0,87,0.00,,,0.00,0,weatherlink.com 1.10,2013-10-02 10:11:00,
2013-10-02 03:27:00,52.8,47.0,29.96,North,360,3.0,4.0,82,0.00,,,0.00,0,weatherlink.com 1.10,2013-10-02 10:27:00,
2013-10-02 03:42:00,53.0,48.0,29.96,NNW,342,0.0,5.0,82,0.00,,,0.00,0,weatherlink.com 1.10,2013-10-02 10:42:00,
2013-10-02 03:57:00,52.6,48.0,29.96,WSW,256,0.0,1.0,83,0.00,,,0.00,0,weatherlink.com 1.10,2013-10-02 10:57:00,
2013-10-02 04:12:00,52.8,47.0,29.96,WNW,288,0.0,4.0,82,0.00,,,0.00,0,weatherlink.com 1.10,2013-10-02 11:12:00,
2013-10-02 04:27:00,52.3,47.0,29.96,NW,304,3.0,3.0,82,0.00,,,0.00,0,weatherlink.com 1.10,2013-10-02 11:27:00,
2013-10-02 04:42:00,52.1,47.0,29.96,NNE,19,1.0,4.0,84,0.00,,,0.00,0,weatherlink.com 1.10,2013-10-02 11:42:00,
2013-10-02 04:57:00,53.2,48.0,29.96,NW,318,0.0,5.0,81,0.00,,,0.00,0,weatherlink.com 1.10,2013-10-02 11:57:00,
2013-10-02 05:12:00,52.8,47.0,29.97,NNW,348,3.0,5.0,81,0.00,,,0.00,0,weatherlink.com 1.10,2013-10-02 12:12:00,
2013-10-02 05:27:00,53.0,47.0,29.97,NNE,26,4.0,9.0,81,0.00,,,0.00,0,weatherlink.com 1.10,2013-10-02 12:27:00,
2013-10-02 05:42:00,53.4,47.0,29.98,WNW,295,2.0,5.0,80,0.00,,,0.00,0,weatherlink.com 1.10,2013-10-02 12:42:00,
2013-10-02 05:57:00,53.3,47.0,29.98,North,5,2.0,5.0,80,0.00,,,0.00,0,weatherlink.com 1.10,2013-10-02 12:57:00,
2013-10-02 06:12:00,53.7,47.0,29.98,North,351,2.0,5.0,79,0.00,,,0.00,0,weatherlink.com 1.10,2013-10-02 13:12:00,
2013-10-02 06:27:00,53.3,47.0,29.98,NNE,29,1.0,7.0,79,0.00,,,0.00,0,weatherlink.com 1.10,2013-10-02 13:27:00,
2013-10-02 06:42:00,53.1,47.0,29.98,NNE,30,4.0,6.0,79,0.00,,,0.00,0,weatherlink.com 1.10,2013-10-02 13:42:00,
2013-10-02 06:57:00,52.3,46.0,29.99,NNE,33,4.0,4.0,80,0.00,,,0.00,0,weatherlink.com 1.10,2013-10-02 13:57:00,
2013-10-02 07:12:00,52.1,46.0,30.00,NNE,16,1.0,5.0,81,0.00,,,0.00,0,weatherlink.com 1.10,2013-10-02 14:12:00,
2013-10-02 07:27:00,52.1,46.0,30.00,NNE,23,3.0,5.0,81,0.00,,,0.00,9,weatherlink.com 1.10,2013-10-02 14:27:00,
2013-10-02 07:42:00,51.9,46.0,30.00,NNW,327,0.0,4.0,81,0.00,,,0.00,23,weatherlink.com 1.10,2013-10-02 14:42:00,
2013-10-02 07:57:00,51.5,47.0,30.01,NNE,21,1.0,4.0,83,0.00,,,0.00,28,weatherlink.com 1.10,2013-10-02 14:57:00,
2013-10-02 08:12:00,52.3,47.0,30.01,NNE,15,1.0,4.0,82,0.00,,,0.00,141,weatherlink.com 1.10,2013-10-02 15:12:00,
2013-10-02 08:27:00,53.5,48.0,30.02,NNE,16,0.0,2.0,81,0.00,,,0.00,199,weatherlink.com 1.10,2013-10-02 15:27:00,
2013-10-02 08:42:00,54.4,48.0,30.02,NNE,16,0.0,1.0,79,0.00,,,0.00,257,weatherlink.com 1.10,2013-10-02 15:42:00,
2013-10-02 08:57:00,55.2,48.0,30.03,West,267,0.0,3.0,78,0.00,,,0.00,311,weatherlink.com 1.10,2013-10-02 15:57:00,
2013-10-02 09:12:00,55.9,49.0,30.02,SW,219,0.0,3.0,77,0.00,,,0.00,357,weatherlink.com 1.10,2013-10-02 16:12:00,
2013-10-02 09:27:00,57.1,49.0,30.02,SW,234,1.0,3.0,74,0.00,,,0.00,410,weatherlink.com 1.10,2013-10-02 16:27:00,
2013-10-02 09:42:00,58.0,49.0,30.02,SW,229,1.0,3.0,72,0.00,,,0.00,452,weatherlink.com 1.10,2013-10-02 16:42:00,
2013-10-02 09:57:00,58.9,49.0,30.03,West,261,7.0,7.0,70,0.00,,,0.00,497,weatherlink.com 1.10,2013-10-02 16:57:00,
2013-10-02 10:48:00,58.7,49.0,30.02,NW,316,3.0,14.0,71,0.00,,,0.00,621,weatherlink.com 1.10,2013-10-02 17:48:00,
2013-10-02 10:58:00,58.7,49.0,30.03,WNW,284,8.0,14.0,70,0.00,,,0.00,640,weatherlink.com 1.10,2013-10-02 17:58:00,
2013-10-02 11:13:00,58.5,49.0,30.02,WSW,248,7.0,15.0,71,0.00,,,0.00,671,weatherlink.com 1.10,2013-10-02 18:13:00,
2013-10-02 11:28:00,58.6,49.0,30.03,West,279,10.0,16.0,71,0.00,,,0.00,693,weatherlink.com 1.10,2013-10-02 18:28:00,
2013-10-02 11:43:00,58.7,49.0,30.03,WSW,244,10.0,21.0,71,0.00,,,0.00,715,weatherlink.com 1.10,2013-10-02 18:43:00,
2013-10-02 11:58:00,58.6,50.0,30.02,West,267,7.0,17.0,72,0.00,,,0.00,733,weatherlink.com 1.10,2013-10-02 18:58:00,
2013-10-02 12:13:00,58.6,50.0,30.02,West,260,5.0,15.0,72,0.00,,,0.00,747,weatherlink.com 1.10,2013-10-02 19:13:00,
2013-10-02 12:28:00,58.3,49.0,30.02,North,350,6.0,18.0,72,0.00,,,0.00,758,weatherlink.com 1.10,2013-10-02 19:28:00,
2013-10-02 12:43:00,58.3,50.0,30.02,WNW,298,4.0,15.0,73,0.00,,,0.00,761,weatherlink.com 1.10,2013-10-02 19:43:00,
2013-10-02 12:58:00,58.9,50.0,30.02,SW,227,6.0,18.0,72,0.00,,,0.00,761,weatherlink.com 1.10,2013-10-02 19:58:00,
2013-10-02 13:13:00,58.9,49.0,30.02,NW,321,12.0,17.0,71,0.00,,,0.00,763,weatherlink.com 1.10,2013-10-02 20:13:00,
2013-10-02 13:28:00,59.4,49.0,30.01,NW,307,18.0,18.0,69,0.00,,,0.00,756,weatherlink.com 1.10,2013-10-02 20:28:00,
2013-10-02 13:43:00,59.7,48.0,30.00,WNW,296,10.0,19.0,66,0.00,,,0.00,754,weatherlink.com 1.10,2013-10-02 20:43:00,
2013-10-02 13:58:00,59.7,48.0,30.00,WNW,286,5.0,18.0,66,0.00,,,0.00,738,weatherlink.com 1.10,2013-10-02 20:58:00,
2013-10-02 14:13:00,59.6,48.0,29.99,West,259,6.0,22.0,65,0.00,,,0.00,729,weatherlink.com 1.10,2013-10-02 21:13:00,
2013-10-02 14:28:00,59.9,47.0,29.98,SW,227,4.0,18.0,63,0.00,,,0.00,707,weatherlink.com 1.10,2013-10-02 21:28:00,
2013-10-02 14:43:00,60.3,47.0,29.99,WNW,297,9.0,19.0,62,0.00,,,0.00,682,weatherlink.com 1.10,2013-10-02 21:43:00,
2013-10-02 14:58:00,60.2,47.0,29.99,WSW,243,7.0,17.0,63,0.00,,,0.00,650,weatherlink.com 1.10,2013-10-02 21:58:00,
2013-10-02 15:13:00,61.7,47.0,29.99,WNW,288,11.0,19.0,58,0.00,,,0.00,527,weatherlink.com 1.10,2013-10-02 22:13:00,
2013-10-02 15:29:00,62.2,46.0,29.99,NW,317,10.0,18.0,56,0.00,,,0.00,594,weatherlink.com 1.10,2013-10-02 22:29:00,
2013-10-02 15:43:00,61.1,46.0,29.99,West,277,5.0,21.0,59,0.00,,,0.00,536,weatherlink.com 1.10,2013-10-02 22:43:00,
2013-10-02 15:58:00,61.4,46.0,29.99,WNW,300,5.0,18.0,58,0.00,,,0.00,439,weatherlink.com 1.10,2013-10-02 22:58:00,
2013-10-02 16:13:00,60.9,47.0,30.00,WNW,298,10.0,19.0,60,0.00,,,0.00,410,weatherlink.com 1.10,2013-10-02 23:13:00,
2013-10-02 16:28:00,60.4,47.0,30.00,WNW,289,14.0,18.0,61,0.00,,,0.00,469,weatherlink.com 1.10,2013-10-02 23:28:00,
2013-10-02 16:43:00,60.1,46.0,30.00,WNW,294,11.0,18.0,61,0.00,,,0.00,323,weatherlink.com 1.10,2013-10-02 23:43:00,
2013-10-02 16:58:00,62.2,47.0,29.99,West,272,7.0,14.0,58,0.00,,,0.00,260,weatherlink.com 1.10,2013-10-02 23:58:00,
2013-10-02 17:13:00,63.0,46.0,30.00,West,281,8.0,14.0,54,0.00,,,0.00,221,weatherlink.com 1.10,2013-10-03 00:13:00,
2013-10-02 17:28:00,61.3,46.0,30.01,WSW,252,7.0,14.0,58,0.00,,,0.00,204,weatherlink.com 1.10,2013-10-03 00:28:00,
2013-10-02 17:44:00,61.3,47.0,30.01,WNW,302,5.0,11.0,59,0.00,,,0.00,183,weatherlink.com 1.10,2013-10-03 00:44:00,
2013-10-02 17:59:00,61.6,46.0,30.01,West,261,10.0,13.0,58,0.00,,,0.00,165,weatherlink.com 1.10,2013-10-03 00:59:00,
2013-10-02 18:14:00,62.5,46.0,30.01,WNW,292,7.0,10.0,56,0.00,,,0.00,93,weatherlink.com 1.10,2013-10-03 01:14:00,
2013-10-02 18:29:00,61.8,45.0,30.02,West,275,4.0,11.0,55,0.00,,,0.00,37,weatherlink.com 1.10,2013-10-03 01:29:00,
2013-10-02 18:44:00,60.5,45.0,30.02,WNW,291,5.0,12.0,58,0.00,,,0.00,16,weatherlink.com 1.10,2013-10-03 01:44:00,
2013-10-02 18:59:00,59.5,45.0,30.02,West,277,4.0,10.0,59,0.00,,,0.00,0,weatherlink.com 1.10,2013-10-03 01:59:00,
2013-10-02 19:14:00,58.6,45.0,30.03,WNW,286,2.0,8.0,61,0.00,,,0.00,0,weatherlink.com 1.10,2013-10-03 02:14:00,
2013-10-02 19:29:00,57.7,45.0,30.04,NW,307,0.0,4.0,63,0.00,,,0.00,0,weatherlink.com 1.10,2013-10-03 02:29:00,
2013-10-02 19:44:00,56.4,45.0,30.05,NW,313,2.0,4.0,65,0.00,,,0.00,0,weatherlink.com 1.10,2013-10-03 02:44:00,
2013-10-02 19:59:00,55.2,44.0,30.05,WNW,302,0.0,1.0,67,0.00,,,0.00,0,weatherlink.com 1.10,2013-10-03 02:59:00,
2013-10-02 20:14:00,54.6,44.0,30.05,North,355,0.0,5.0,68,0.00,,,0.00,0,weatherlink.com 1.10,2013-10-03 03:14:00,
2013-10-02 20:29:00,56.2,44.0,30.06,NW,309,1.0,5.0,65,0.00,,,0.00,0,weatherlink.com 1.10,2013-10-03 03:29:00,
2013-10-02 20:44:00,57.1,44.0,30.06,North,9,7.0,8.0,61,0.00,,,0.00,0,weatherlink.com 1.10,2013-10-03 03:44:00,
2013-10-02 20:59:00,57.2,44.0,30.07,NW,304,5.0,10.0,61,0.00,,,0.00,0,weatherlink.com 1.10,2013-10-03 03:59:00,
2013-10-02 21:14:00,57.7,44.0,30.07,WNW,282,4.0,9.0,60,0.00,,,0.00,0,weatherlink.com 1.10,2013-10-03 04:14:00,
2013-10-02 21:29:00,57.2,44.0,30.07,NW,325,1.0,7.0,61,0.00,,,0.00,0,weatherlink.com 1.10,2013-10-03 04:29:00,
2013-10-02 21:44:00,56.1,43.0,30.07,NNW,329,0.0,3.0,63,0.00,,,0.00,0,weatherlink.com 1.10,2013-10-03 04:44:00,
2013-10-02 21:59:00,55.3,44.0,30.06,NNW,329,0.0,3.0,65,0.00,,,0.00,0,weatherlink.com 1.10,2013-10-03 04:59:00,
2013-10-02 22:14:00,55.1,43.0,30.06,NNW,338,2.0,4.0,65,0.00,,,0.00,0,weatherlink.com 1.10,2013-10-03 05:14:00,
2013-10-02 22:29:00,55.5,43.0,30.06,NNW,346,0.0,7.0,64,0.00,,,0.00,0,weatherlink.com 1.10,2013-10-03 05:29:00,
2013-10-02 22:44:00,55.5,44.0,30.06,West,269,0.0,4.0,65,0.00,,,0.00,0,weatherlink.com 1.10,2013-10-03 05:44:00,
2013-10-02 22:59:00,55.0,44.0,30.06,SW,231,3.0,5.0,67,0.00,,,0.00,0,weatherlink.com 1.10,2013-10-03 05:59:00,
2013-10-02 23:14:00,55.7,44.0,30.06,West,266,1.0,6.0,64,0.00,,,0.00,0,weatherlink.com 1.10,2013-10-03 06:14:00,
2013-10-02 23:29:00,55.0,43.0,30.06,West,279,0.0,4.0,65,0.00,,,0.00,0,weatherlink.com 1.10,2013-10-03 06:29:00,
2013-10-02 23:44:00,53.7,42.0,30.07,WNW,297,0.0,5.0,66,0.00,,,0.00,0,weatherlink.com 1.10,2013-10-03 06:44:00,
2013-10-02 23:59:00,52.7,42.0,30.07,North,349,1.0,3.0,67,0.00,,,0.00,0,weatherlink.com 1.10,2013-10-03 06:59:00,